Time;durP1;ratioP1;P1;durP2;ratioP2;P2;SDS_P1;SDS_P2;PMS_P1;PMS_P2;Temp;Humidity;BMP_temperature;BMP_pressure;BME280_temperature;BME280_humidity;BME280_pressure;Samples;Min_cycle;Max_cycle;Signal;HPM_P1;HPM_P2
2021/10/10 00:02:08;;;;;;;45.90;28.80;;;;;;;;;;769853;182;918457;-64
2021/10/10 00:04:34;;;;;;;52.80;29.00;;;;;;;;;;766218;182;919686;-64
2021/10/10 00:07:00;;;;;;;42.00;27.80;;;;;;;;;;765495;181;919573;-63
2021/10/10 00:09:26;;;;;;;49.00;27.17;;;;;;;;;;766495;181;918877;-64
2021/10/10 00:11:52;;;;;;;54.77;30.00;;;;;;;;;;763269;182;918466;-62
2021/10/10 00:14:17;;;;;;;50.17;24.83;;;;;;;;;;765894;182;918394;-65
2021/10/10 00:16:43;;;;;;;42.75;26.25;;;;;;;;;;765498;181;919854;-64
2021/10/10 00:19:09;;;;;;;48.03;27.40;;;;;;;;;;770027;181;920025;-65
2021/10/10 00:21:35;;;;;;;55.00;27.27;;;;;;;;;;762838;182;918546;-65
2021/10/10 00:24:01;;;;;;;52.83;29.30;;;;;;;;;;762726;181;917617;-63
2021/10/10 00:26:27;;;;;;;47.67;25.43;;;;;;;;;;763110;182;917337;-66
2021/10/10 00:28:53;;;;;;;51.20;30.23;;;;;;;;;;762121;181;920611;-65
2021/10/10 00:31:19;;;;;;;45.17;28.20;;;;;;;;;;747078;186;922181;-66
2021/10/10 00:33:44;;;;;;;49.73;28.10;;;;;;;;;;739195;189;919115;-66
2021/10/10 00:36:10;;;;;;;56.60;28.27;;;;;;;;;;764973;181;919003;-66
2021/10/10 00:38:37;;;;;;;49.83;26.93;;;;;;;;;;764041;182;919211;-65
2021/10/10 00:41:02;;;;;;;52.85;28.00;;;;;;;;;;768888;182;918572;-66
2021/10/10 00:43:28;;;;;;;47.77;27.90;;;;;;;;;;758141;181;920545;-67
2021/10/10 00:45:54;;;;;;;54.07;29.20;;;;;;;;;;767308;181;918082;-66
2021/10/10 00:48:19;;;;;;;56.73;32.60;;;;;;;;;;767211;182;920457;-66
2021/10/10 00:50:45;;;;;;;51.13;29.43;;;;;;;;;;769053;182;754828;-67
2021/10/10 00:53:11;;;;;;;52.13;29.93;;;;;;;;;;769828;181;937955;-67
2021/10/10 00:55:37;;;;;;;52.88;30.62;;;;;;;;;;750782;183;912161;-67
2021/10/10 00:58:03;;;;;;;72.43;32.83;;;;;;;;;;769012;181;911388;-66
2021/10/10 01:00:29;;;;;;;56.60;31.83;;;;;;;;;;761428;182;942394;-66
2021/10/10 01:02:58;;;;;;;51.60;31.93;;;;;;;;;;760784;180;915718;-67
2021/10/10 01:05:21;;;;;;;55.23;31.53;;;;;;;;;;763655;181;918322;-67
2021/10/10 01:07:47;;;;;;;64.03;31.93;;;;;;;;;;762657;182;917453;-67
2021/10/10 01:10:13;;;;;;;54.90;29.90;;;;;;;;;;762108;182;919416;-67
2021/10/10 01:12:40;;;;;;;60.83;31.40;;;;;;;;;;746463;186;920550;-69
2021/10/10 01:15:05;;;;;;;57.37;30.30;;;;;;;;;;763212;184;918811;-68
2021/10/10 01:17:31;;;;;;;54.47;31.60;;;;;;;;;;760458;181;919442;-68
2021/10/10 01:19:57;;;;;;;59.70;34.53;;;;;;;;;;765898;181;918705;-68
2021/10/10 01:22:23;;;;;;;57.77;32.00;;;;;;;;;;766849;182;918988;-69
2021/10/10 01:24:49;;;;;;;68.93;32.17;;;;;;;;;;765568;180;941339;-68
2021/10/10 01:27:14;;;;;;;58.60;31.73;;;;;;;;;;762354;182;1018930;-69
2021/10/10 01:29:40;;;;;;;66.97;32.70;;;;;;;;;;767729;181;915315;-68
2021/10/10 01:32:06;;;;;;;65.25;32.25;;;;;;;;;;766119;181;918662;-69
2021/10/10 01:34:32;;;;;;;60.20;31.03;;;;;;;;;;747194;186;918686;-68
2021/10/10 01:36:58;;;;;;;60.87;33.20;;;;;;;;;;734777;189;917068;-68
2021/10/10 01:39:24;;;;;;;58.30;32.85;;;;;;;;;;769706;178;917188;-69
2021/10/10 01:41:49;;;;;;;53.53;29.60;;;;;;;;;;766723;179;920372;-69
2021/10/10 01:44:15;;;;;;;62.90;31.40;;;;;;;;;;766488;181;918103;-68
2021/10/10 01:46:41;;;;;;;55.03;31.17;;;;;;;;;;770727;181;918904;-69
2021/10/10 01:49:08;;;;;;;58.93;32.73;;;;;;;;;;763790;181;918887;-68
2021/10/10 01:51:34;;;;;;;57.00;30.57;;;;;;;;;;761008;181;914826;-68
2021/10/10 01:54:00;;;;;;;60.50;34.40;;;;;;;;;;765192;182;914961;-69
2021/10/10 01:56:25;;;;;;;58.50;34.00;;;;;;;;;;765417;182;927655;-69
2021/10/10 01:58:51;;;;;;;58.90;31.73;;;;;;;;;;763905;180;926255;-67
2021/10/10 02:01:17;;;;;;;66.80;34.17;;;;;;;;;;772997;181;918473;-68
2021/10/10 02:03:43;;;;;;;54.63;32.40;;;;;;;;;;766113;181;919044;-69
2021/10/10 02:06:09;;;;;;;61.00;31.57;;;;;;;;;;766762;182;918608;-68
2021/10/10 02:08:35;;;;;;;63.47;32.17;;;;;;;;;;765545;181;918165;-68
2021/10/10 02:11:00;;;;;;;48.10;31.10;;;;;;;;;;772610;182;918364;-67
2021/10/10 02:13:26;;;;;;;64.75;33.70;;;;;;;;;;763689;180;917933;-69
2021/10/10 02:15:52;;;;;;;57.03;32.90;;;;;;;;;;762878;182;919175;-66
2021/10/10 02:18:18;;;;;;;52.50;33.23;;;;;;;;;;763971;182;934303;-67
2021/10/10 02:20:44;;;;;;;58.63;32.40;;;;;;;;;;759989;183;935366;-66
2021/10/10 02:23:10;;;;;;;69.60;32.07;;;;;;;;;;767549;182;919488;-67
2021/10/10 02:25:35;;;;;;;66.25;34.33;;;;;;;;;;751396;184;957619;-67
2021/10/10 02:28:01;;;;;;;57.03;35.10;;;;;;;;;;761816;181;919237;-67
2021/10/10 02:30:27;;;;;;;54.20;31.47;;;;;;;;;;764559;182;918621;-66
2021/10/10 02:32:53;;;;;;;56.53;35.07;;;;;;;;;;760581;182;918976;-66
2021/10/10 02:35:19;;;;;;;51.27;31.10;;;;;;;;;;768357;182;918686;-67
2021/10/10 02:37:45;;;;;;;62.60;34.70;;;;;;;;;;764730;182;918565;-67
2021/10/10 02:40:11;;;;;;;56.72;33.72;;;;;;;;;;762904;179;918662;-67
2021/10/10 02:42:37;;;;;;;61.88;35.40;;;;;;;;;;775608;181;915927;-69
2021/10/10 02:45:03;;;;;;;60.77;35.97;;;;;;;;;;768734;180;919560;-66
2021/10/10 02:47:29;;;;;;;60.33;34.50;;;;;;;;;;769076;181;918715;-66
2021/10/10 02:49:55;;;;;;;64.60;35.73;;;;;;;;;;773184;181;917965;-67
2021/10/10 02:52:21;;;;;;;57.60;33.20;;;;;;;;;;768964;181;918937;-68
2021/10/10 02:54:47;;;;;;;63.40;35.40;;;;;;;;;;761108;180;919394;-66
2021/10/10 02:57:13;;;;;;;56.63;34.13;;;;;;;;;;764057;181;918857;-66
2021/10/10 02:59:38;;;;;;;60.47;35.77;;;;;;;;;;764530;183;921313;-66
2021/10/10 03:02:04;;;;;;;61.93;38.03;;;;;;;;;;750032;186;919196;-67
2021/10/10 03:04:30;;;;;;;57.00;34.27;;;;;;;;;;761622;181;919072;-66
2021/10/10 03:06:56;;;;;;;57.07;36.87;;;;;;;;;;755308;186;918905;-66
2021/10/10 03:09:22;;;;;;;61.50;36.38;;;;;;;;;;758232;180;918417;-66
2021/10/10 03:11:48;;;;;;;57.47;33.40;;;;;;;;;;764422;182;918156;-66
2021/10/10 03:14:13;;;;;;;66.90;36.10;;;;;;;;;;770867;182;925264;-66
2021/10/10 03:16:39;;;;;;;66.83;37.20;;;;;;;;;;764016;182;917823;-67
2021/10/10 03:19:05;;;;;;;57.17;32.77;;;;;;;;;;768806;182;619497;-66
2021/10/10 03:21:31;;;;;;;69.53;36.13;;;;;;;;;;772118;179;631060;-67
2021/10/10 03:23:57;;;;;;;70.20;37.67;;;;;;;;;;764217;183;640780;-66
2021/10/10 03:26:23;;;;;;;62.70;34.90;;;;;;;;;;770218;182;625252;-66
2021/10/10 03:28:49;;;;;;;65.77;37.20;;;;;;;;;;767218;180;628735;-67
2021/10/10 03:31:15;;;;;;;62.37;38.77;;;;;;;;;;770940;181;627368;-66
2021/10/10 03:33:41;;;;;;;69.43;37.47;;;;;;;;;;767946;181;918621;-66
2021/10/10 03:36:06;;;;;;;70.20;37.50;;;;;;;;;;768014;182;629162;-68
2021/10/10 03:38:32;;;;;;;65.37;37.33;;;;;;;;;;772332;182;615229;-66
2021/10/10 03:40:58;;;;;;;57.50;35.17;;;;;;;;;;768936;180;631009;-66
2021/10/10 03:43:24;;;;;;;68.30;39.70;;;;;;;;;;766244;181;624623;-67
2021/10/10 03:45:50;;;;;;;64.63;38.37;;;;;;;;;;773827;181;614340;-66
2021/10/10 03:48:16;;;;;;;65.27;38.50;;;;;;;;;;769198;182;929530;-66
2021/10/10 03:50:41;;;;;;;68.30;37.03;;;;;;;;;;765809;181;628741;-66
2021/10/10 03:53:07;;;;;;;61.60;34.53;;;;;;;;;;771696;180;621637;-67
2021/10/10 03:55:36;;;;;;;59.53;34.90;;;;;;;;;;773678;180;918903;-66
2021/10/10 03:58:00;;;;;;;63.93;36.37;;;;;;;;;;767831;181;917713;-65
2021/10/10 04:00:26;;;;;;;71.73;38.03;;;;;;;;;;764037;181;919989;-65
2021/10/10 04:02:52;;;;;;;71.53;37.15;;;;;;;;;;770894;182;918819;-66
2021/10/10 04:05:24;;;;;;;72.27;39.27;;;;;;;;;;766354;181;919607;-65
2021/10/10 04:07:46;;;;;;;78.27;37.57;;;;;;;;;;753994;184;919584;-67
2021/10/10 04:10:12;;;;;;;64.67;38.67;;;;;;;;;;772010;182;631974;-67
2021/10/10 04:12:38;;;;;;;65.10;37.53;;;;;;;;;;778900;180;629443;-68
2021/10/10 04:15:04;;;;;;;64.13;38.43;;;;;;;;;;766500;180;918429;-68
2021/10/10 04:17:30;;;;;;;65.30;36.90;;;;;;;;;;765569;180;919140;-66
2021/10/10 04:19:56;;;;;;;63.23;36.23;;;;;;;;;;767544;181;917957;-67
2021/10/10 04:22:22;;;;;;;70.17;38.80;;;;;;;;;;765549;182;918703;-67
2021/10/10 04:24:48;;;;;;;61.90;36.97;;;;;;;;;;769064;181;911307;-67
2021/10/10 04:27:14;;;;;;;59.67;37.60;;;;;;;;;;774480;182;629744;-67
2021/10/10 04:29:39;;;;;;;61.53;37.10;;;;;;;;;;768922;181;618696;-67
2021/10/10 04:32:06;;;;;;;60.43;38.90;;;;;;;;;;766502;182;630674;-67
2021/10/10 04:34:32;;;;;;;65.53;39.53;;;;;;;;;;769974;182;636050;-66
2021/10/10 04:36:57;;;;;;;60.00;36.07;;;;;;;;;;771527;178;621269;-68
2021/10/10 04:39:23;;;;;;;67.83;39.13;;;;;;;;;;748878;186;919101;-66
2021/10/10 04:41:49;;;;;;;70.10;39.17;;;;;;;;;;766913;182;918184;-67
2021/10/10 04:44:15;;;;;;;75.87;38.40;;;;;;;;;;769640;182;915695;-66
2021/10/10 04:46:41;;;;;;;68.63;36.83;;;;;;;;;;764455;181;915530;-68
2021/10/10 04:49:07;;;;;;;67.23;37.40;;;;;;;;;;763737;180;915293;-67
2021/10/10 04:51:32;;;;;;;69.00;37.97;;;;;;;;;;770900;181;919070;-66
2021/10/10 04:53:58;;;;;;;72.80;40.90;;;;;;;;;;766154;182;918441;-66
2021/10/10 04:56:24;;;;;;;79.00;40.97;;;;;;;;;;761752;182;918437;-67
2021/10/10 04:58:50;;;;;;;70.67;40.87;;;;;;;;;;769632;182;919711;-67
2021/10/10 05:01:16;;;;;;;67.37;37.80;;;;;;;;;;762850;182;918836;-67
2021/10/10 05:03:42;;;;;;;68.53;39.97;;;;;;;;;;765485;182;919449;-67
2021/10/10 05:06:08;;;;;;;73.60;41.17;;;;;;;;;;764971;181;918707;-66
2021/10/10 05:08:33;;;;;;;74.90;39.10;;;;;;;;;;771849;181;919662;-67
2021/10/10 05:10:59;;;;;;;64.97;40.23;;;;;;;;;;767415;181;918444;-67
2021/10/10 05:13:25;;;;;;;64.83;39.53;;;;;;;;;;763731;181;918480;-67
2021/10/10 05:15:51;;;;;;;71.23;39.87;;;;;;;;;;771833;181;918861;-67
2021/10/10 05:18:17;;;;;;;61.90;37.70;;;;;;;;;;759428;182;919770;-67
2021/10/10 05:20:43;;;;;;;70.97;40.83;;;;;;;;;;762740;181;1022133;-67
2021/10/10 05:23:10;;;;;;;69.67;38.13;;;;;;;;;;768348;182;918995;-67
2021/10/10 05:25:34;;;;;;;78.43;40.27;;;;;;;;;;760925;182;919598;-67
2021/10/10 05:28:00;;;;;;;74.93;38.80;;;;;;;;;;763462;180;920223;-66
2021/10/10 05:30:26;;;;;;;65.53;38.00;;;;;;;;;;766846;181;921714;-66
2021/10/10 05:32:52;;;;;;;62.53;38.10;;;;;;;;;;761858;182;920668;-69
2021/10/10 05:35:18;;;;;;;69.03;39.73;;;;;;;;;;751831;182;921043;-67
2021/10/10 05:37:43;;;;;;;63.07;36.70;;;;;;;;;;766820;182;920239;-67
2021/10/10 05:40:10;;;;;;;64.97;40.50;;;;;;;;;;771104;182;919782;-67
2021/10/10 05:42:35;;;;;;;76.43;41.40;;;;;;;;;;765568;182;918424;-67
2021/10/10 05:45:01;;;;;;;68.03;42.53;;;;;;;;;;764120;182;918976;-67
2021/10/10 05:47:27;;;;;;;80.37;43.50;;;;;;;;;;770640;182;906869;-67
2021/10/10 05:49:53;;;;;;;77.95;41.85;;;;;;;;;;766443;181;915741;-68
2021/10/10 05:52:23;;;;;;;76.20;43.97;;;;;;;;;;763878;182;917369;-68
2021/10/10 05:54:45;;;;;;;81.93;42.27;;;;;;;;;;776972;182;913169;-68
2021/10/10 05:57:14;;;;;;;91.40;42.80;;;;;;;;;;766182;180;914229;-66
2021/10/10 05:59:38;;;;;;;76.57;42.13;;;;;;;;;;763872;182;910944;-68
2021/10/10 06:02:02;;;;;;;78.27;43.77;;;;;;;;;;767930;181;918095;-68
2021/10/10 06:04:29;;;;;;;67.97;39.10;;;;;;;;;;771781;182;912520;-67
2021/10/10 06:06:55;;;;;;;72.20;42.77;;;;;;;;;;770388;182;910137;-65
2021/10/10 06:09:21;;;;;;;80.73;45.63;;;;;;;;;;766926;181;917959;-67
2021/10/10 06:11:47;;;;;;;79.80;46.27;;;;;;;;;;762529;183;918381;-64
2021/10/10 06:14:13;;;;;;;81.73;45.20;;;;;;;;;;764590;181;918430;-67
2021/10/10 06:16:38;;;;;;;81.37;46.70;;;;;;;;;;764420;181;919366;-64
2021/10/10 06:19:04;;;;;;;80.33;48.37;;;;;;;;;;771498;181;919122;-65
2021/10/10 06:21:30;;;;;;;80.00;47.23;;;;;;;;;;764282;181;918479;-65
2021/10/10 06:23:56;;;;;;;88.93;50.50;;;;;;;;;;763005;182;919322;-64
2021/10/10 06:26:22;;;;;;;87.90;50.87;;;;;;;;;;765094;182;919185;-63
2021/10/10 06:28:48;;;;;;;87.73;46.67;;;;;;;;;;769007;181;919071;-65
2021/10/10 06:31:13;;;;;;;111.28;63.13;;;;;;;;;;763999;182;919794;-66
2021/10/10 06:33:39;;;;;;;94.10;51.23;;;;;;;;;;760362;182;919063;-64
2021/10/10 06:36:05;;;;;;;87.13;47.27;;;;;;;;;;764093;180;918505;-64
2021/10/10 06:38:31;;;;;;;84.07;47.00;;;;;;;;;;756497;182;919465;-63
2021/10/10 06:40:57;;;;;;;81.67;45.10;;;;;;;;;;758192;182;918912;-63
2021/10/10 06:43:23;;;;;;;77.50;41.25;;;;;;;;;;763732;182;924105;-64
2021/10/10 06:45:49;;;;;;;72.30;43.70;;;;;;;;;;755608;183;918934;-62
2021/10/10 06:48:15;;;;;;;74.60;43.70;;;;;;;;;;747459;186;919440;-64
2021/10/10 06:50:41;;;;;;;73.73;42.10;;;;;;;;;;764951;181;918664;-63
2021/10/10 06:53:07;;;;;;;90.80;47.20;;;;;;;;;;761286;183;918851;-63
2021/10/10 06:55:33;;;;;;;88.20;44.70;;;;;;;;;;761670;180;919733;-64
2021/10/10 06:57:58;;;;;;;73.80;44.40;;;;;;;;;;766346;182;918883;-61
2021/10/10 07:00:24;;;;;;;76.53;44.00;;;;;;;;;;770489;182;919235;-62
2021/10/10 07:02:51;;;;;;;73.53;43.70;;;;;;;;;;760906;182;920162;-62
2021/10/10 07:05:18;;;;;;;82.43;45.67;;;;;;;;;;756368;183;919404;-62
2021/10/10 07:07:42;;;;;;;77.60;45.20;;;;;;;;;;751890;186;918525;-62
2021/10/10 07:10:08;;;;;;;73.95;43.33;;;;;;;;;;747938;184;919474;-61
2021/10/10 07:12:34;;;;;;;76.70;45.37;;;;;;;;;;747771;186;919371;-61
2021/10/10 07:15:01;;;;;;;73.55;46.72;;;;;;;;;;750130;186;919752;-61
2021/10/10 07:17:28;;;;;;;78.37;43.20;;;;;;;;;;767069;182;919711;-61
2021/10/10 07:19:59;;;;;;;77.50;44.97;;;;;;;;;;748422;186;919123;-61
2021/10/10 07:25:00;;;;;;;81.63;44.77;;;;;;;;;;773078;181;919185;-63
2021/10/10 07:27:20;;;;;;;77.63;41.50;;;;;;;;;;763869;181;918735;-62
2021/10/10 07:29:46;;;;;;;80.17;45.20;;;;;;;;;;764884;181;919097;-63
2021/10/10 07:32:12;;;;;;;71.93;43.67;;;;;;;;;;768465;181;919306;-62
2021/10/10 07:34:38;;;;;;;76.03;43.63;;;;;;;;;;773581;180;918292;-63
2021/10/10 07:37:04;;;;;;;74.77;41.50;;;;;;;;;;762390;180;919291;-62
2021/10/10 07:39:29;;;;;;;73.77;44.83;;;;;;;;;;766409;181;919085;-64
2021/10/10 07:41:55;;;;;;;71.07;41.60;;;;;;;;;;772475;181;919502;-64
2021/10/10 07:44:23;;;;;;;78.03;42.73;;;;;;;;;;768470;180;919449;-62
2021/10/10 07:46:55;;;;;;;75.47;41.37;;;;;;;;;;753580;183;919575;-62
2021/10/10 07:49:13;;;;;;;67.27;37.90;;;;;;;;;;762163;182;920225;-63
2021/10/10 07:51:39;;;;;;;68.83;38.47;;;;;;;;;;765589;182;918753;-63
2021/10/10 07:54:05;;;;;;;74.73;41.60;;;;;;;;;;766843;181;919406;-63
2021/10/10 07:56:30;;;;;;;72.27;41.27;;;;;;;;;;761535;182;918679;-61
2021/10/10 07:58:56;;;;;;;70.63;42.03;;;;;;;;;;772960;180;918544;-62
2021/10/10 08:01:22;;;;;;;82.60;41.53;;;;;;;;;;766818;182;918783;-62
2021/10/10 08:03:48;;;;;;;85.30;41.23;;;;;;;;;;754842;183;919242;-63
2021/10/10 08:06:14;;;;;;;71.07;41.77;;;;;;;;;;764447;182;919425;-61
2021/10/10 08:08:40;;;;;;;79.47;41.45;;;;;;;;;;761958;183;919232;-62
2021/10/10 08:11:05;;;;;;;82.03;44.23;;;;;;;;;;764650;181;917178;-63
2021/10/10 08:13:31;;;;;;;81.20;43.70;;;;;;;;;;762495;182;919645;-63
2021/10/10 08:15:57;;;;;;;69.97;39.57;;;;;;;;;;749594;186;919420;-62
2021/10/10 08:18:23;;;;;;;76.23;42.37;;;;;;;;;;762539;182;919165;-62
2021/10/10 08:20:49;;;;;;;79.97;45.35;;;;;;;;;;770384;181;919642;-61
2021/10/10 08:23:15;;;;;;;83.30;43.70;;;;;;;;;;767869;182;920729;-61
2021/10/10 08:25:41;;;;;;;96.47;46.30;;;;;;;;;;764313;182;1020854;-61
2021/10/10 08:28:07;;;;;;;87.67;46.40;;;;;;;;;;763932;182;921440;-62
2021/10/10 08:30:32;;;;;;;84.63;46.80;;;;;;;;;;768788;182;918869;-62
2021/10/10 08:32:58;;;;;;;87.27;44.90;;;;;;;;;;760526;182;934608;-61
2021/10/10 08:35:24;;;;;;;103.07;49.00;;;;;;;;;;758123;182;919745;-61
2021/10/10 08:37:50;;;;;;;79.23;45.23;;;;;;;;;;770230;180;916140;-61
2021/10/10 08:40:16;;;;;;;82.63;44.00;;;;;;;;;;761216;182;919664;-61
2021/10/10 08:42:42;;;;;;;81.20;44.80;;;;;;;;;;760274;180;922614;-62
2021/10/10 08:45:14;;;;;;;90.83;47.23;;;;;;;;;;770897;180;919936;-62
2021/10/10 08:47:43;;;;;;;82.43;43.63;;;;;;;;;;772043;181;919271;-61
2021/10/10 08:50:02;;;;;;;71.63;38.40;;;;;;;;;;761354;180;915322;-62
2021/10/10 08:52:28;;;;;;;66.87;36.20;;;;;;;;;;767088;181;915874;-61
2021/10/10 08:54:54;;;;;;;65.87;37.30;;;;;;;;;;769331;181;914833;-62
2021/10/10 08:57:20;;;;;;;65.67;38.40;;;;;;;;;;765814;182;918479;-61
2021/10/10 08:59:48;;;;;;;63.80;37.00;;;;;;;;;;766987;181;920084;-62
2021/10/10 09:02:14;;;;;;;68.93;37.95;;;;;;;;;;768088;182;919230;-62
2021/10/10 09:04:37;;;;;;;62.53;36.50;;;;;;;;;;764818;182;920612;-63
2021/10/10 09:07:03;;;;;;;61.13;33.53;;;;;;;;;;760174;180;918797;-62
2021/10/10 09:09:29;;;;;;;57.57;34.37;;;;;;;;;;766277;182;920743;-62
2021/10/10 09:11:59;;;;;;;63.93;38.20;;;;;;;;;;765430;181;915913;-62
2021/10/10 09:14:24;;;;;;;61.97;37.10;;;;;;;;;;766928;182;914649;-62
2021/10/10 09:16:50;;;;;;;57.53;33.80;;;;;;;;;;766288;180;919995;-62
2021/10/10 09:19:22;;;;;;;54.80;33.53;;;;;;;;;;764302;182;918851;-64
2021/10/10 09:21:48;;;;;;;51.27;33.07;;;;;;;;;;762459;182;915935;-63
2021/10/10 09:24:14;;;;;;;70.83;34.50;;;;;;;;;;761069;182;919505;-61
2021/10/10 09:26:40;;;;;;;53.13;35.20;;;;;;;;;;759472;182;919965;-62
2021/10/10 09:29:06;;;;;;;58.93;31.90;;;;;;;;;;773245;181;919561;-62
2021/10/10 09:31:32;;;;;;;63.83;34.13;;;;;;;;;;766538;182;914958;-62
2021/10/10 09:33:58;;;;;;;63.63;34.43;;;;;;;;;;759385;181;919293;-61
2021/10/10 09:36:26;;;;;;;55.47;37.17;;;;;;;;;;769400;182;998951;-61
2021/10/10 09:38:56;;;;;;;55.13;35.37;;;;;;;;;;761438;181;920198;-61
2021/10/10 09:41:32;;;;;;;59.30;35.97;;;;;;;;;;759458;180;915441;-62
2021/10/10 09:43:57;;;;;;;58.30;33.07;;;;;;;;;;761739;183;919163;-65
2021/10/10 09:46:24;;;;;;;57.73;32.83;;;;;;;;;;765631;182;919463;-63
2021/10/10 09:48:49;;;;;;;61.77;34.20;;;;;;;;;;766446;179;919128;-63
2021/10/10 09:51:21;;;;;;;121.13;37.20;;;;;;;;;;765890;181;921279;-63
2021/10/10 09:53:47;;;;;;;61.03;32.97;;;;;;;;;;763991;181;916518;-63
2021/10/10 09:56:13;;;;;;;57.07;31.97;;;;;;;;;;773571;181;634559;-63
2021/10/10 09:58:39;;;;;;;47.38;30.85;;;;;;;;;;764925;182;915697;-63
2021/10/10 10:01:09;;;;;;;55.30;30.30;;;;;;;;;;749843;183;948336;-63
2021/10/10 10:03:35;;;;;;;51.17;33.07;;;;;;;;;;766114;181;1033314;-64
2021/10/10 10:06:00;;;;;;;58.80;31.97;;;;;;;;;;765558;179;919282;-64
2021/10/10 10:08:26;;;;;;;55.10;28.23;;;;;;;;;;764911;182;919749;-62
2021/10/10 10:10:52;;;;;;;52.87;29.37;;;;;;;;;;759140;182;927936;-64
2021/10/10 10:13:18;;;;;;;55.43;31.30;;;;;;;;;;767288;180;914341;-63
2021/10/10 10:15:45;;;;;;;50.60;31.00;;;;;;;;;;762278;180;915995;-63
2021/10/10 10:18:10;;;;;;;55.20;33.20;;;;;;;;;;748440;184;907651;-62
2021/10/10 10:20:35;;;;;;;47.60;30.80;;;;;;;;;;739235;188;959435;-62
2021/10/10 10:23:01;;;;;;;51.33;30.40;;;;;;;;;;757337;182;916476;-63
2021/10/10 10:25:27;;;;;;;49.73;29.80;;;;;;;;;;766989;182;915147;-64
2021/10/10 10:27:53;;;;;;;50.07;28.03;;;;;;;;;;769273;181;919903;-63
2021/10/10 10:30:19;;;;;;;50.47;29.90;;;;;;;;;;762941;181;1021191;-64
2021/10/10 10:32:45;;;;;;;54.87;30.77;;;;;;;;;;764588;181;916223;-64
2021/10/10 10:35:11;;;;;;;51.67;32.33;;;;;;;;;;765436;181;916473;-64
2021/10/10 10:37:51;;;;;;;60.30;30.03;;;;;;;;;;771204;180;915602;-63
2021/10/10 10:40:32;;;;;;;47.23;28.53;;;;;;;;;;767602;182;915708;-63
2021/10/10 10:42:57;;;;;;;48.67;29.37;;;;;;;;;;761807;182;919221;-63
2021/10/10 10:45:28;;;;;;;43.97;30.40;;;;;;;;;;763235;182;919291;-64
2021/10/10 10:47:54;;;;;;;61.42;31.30;;;;;;;;;;765080;181;919194;-64
2021/10/10 10:50:20;;;;;;;46.87;29.30;;;;;;;;;;767989;182;919386;-63
2021/10/10 10:52:46;;;;;;;51.47;30.03;;;;;;;;;;765511;181;1020716;-64
2021/10/10 10:55:15;;;;;;;66.55;35.17;;;;;;;;;;761879;182;919154;-65
2021/10/10 10:57:43;;;;;;;46.80;31.07;;;;;;;;;;764392;181;927259;-63
2021/10/10 11:00:08;;;;;;;49.27;31.10;;;;;;;;;;755705;182;918832;-63
2021/10/10 11:02:40;;;;;;;49.50;29.70;;;;;;;;;;760216;179;919382;-62
2021/10/10 11:05:06;;;;;;;58.67;30.33;;;;;;;;;;770249;181;919443;-63
2021/10/10 11:07:32;;;;;;;53.07;29.97;;;;;;;;;;768955;181;918621;-63
2021/10/10 11:09:58;;;;;;;45.17;27.47;;;;;;;;;;764243;181;918943;-62
2021/10/10 11:12:28;;;;;;;54.92;31.95;;;;;;;;;;768399;181;919965;-64
2021/10/10 11:15:00;;;;;;;48.40;31.00;;;;;;;;;;763919;181;920590;-62
2021/10/10 11:17:26;;;;;;;45.53;30.10;;;;;;;;;;771350;180;921575;-65
2021/10/10 11:19:52;;;;;;;54.30;28.80;;;;;;;;;;763604;182;924850;-65
2021/10/10 11:22:18;;;;;;;52.40;31.73;;;;;;;;;;766413;181;917879;-65
2021/10/10 11:24:46;;;;;;;50.38;30.45;;;;;;;;;;764906;182;919538;-62
2021/10/10 11:27:12;;;;;;;55.40;33.53;;;;;;;;;;760924;181;919834;-65
2021/10/10 11:29:37;;;;;;;52.70;30.27;;;;;;;;;;750165;186;919797;-65
2021/10/10 11:32:03;;;;;;;57.40;32.23;;;;;;;;;;763883;182;920168;-65
2021/10/10 11:34:29;;;;;;;50.30;30.80;;;;;;;;;;771568;182;919160;-65
2021/10/10 11:36:55;;;;;;;50.87;30.57;;;;;;;;;;765525;179;919994;-64
2021/10/10 11:39:24;;;;;;;61.83;32.57;;;;;;;;;;762778;181;920499;-65
2021/10/10 11:41:51;;;;;;;52.90;29.35;;;;;;;;;;767592;182;919414;-64
2021/10/10 11:44:17;;;;;;;51.67;28.60;;;;;;;;;;771123;182;918832;-65
2021/10/10 11:46:48;;;;;;;52.60;28.20;;;;;;;;;;766097;182;919562;-64
2021/10/10 11:49:18;;;;;;;49.57;28.67;;;;;;;;;;758606;181;918135;-66
2021/10/10 11:51:49;;;;;;;46.53;27.50;;;;;;;;;;771987;181;904955;-65
2021/10/10 11:54:10;;;;;;;56.40;27.30;;;;;;;;;;764964;182;918182;-65
2021/10/10 11:56:36;;;;;;;54.07;28.47;;;;;;;;;;764626;182;919609;-65
2021/10/10 11:59:08;;;;;;;49.90;27.23;;;;;;;;;;764528;182;919849;-64
2021/10/10 12:01:34;;;;;;;45.83;26.67;;;;;;;;;;768883;182;919184;-65
2021/10/10 12:03:59;;;;;;;47.37;29.67;;;;;;;;;;763252;182;935623;-65
2021/10/10 12:06:25;;;;;;;51.37;29.87;;;;;;;;;;764159;182;918537;-65
2021/10/10 12:08:51;;;;;;;45.97;25.90;;;;;;;;;;768881;182;919374;-65
2021/10/10 12:11:17;;;;;;;51.13;30.03;;;;;;;;;;761552;180;919420;-65
2021/10/10 12:13:49;;;;;;;58.47;27.85;;;;;;;;;;769131;180;929148;-65
2021/10/10 12:16:14;;;;;;;55.63;29.63;;;;;;;;;;757952;183;919364;-65
2021/10/10 12:18:41;;;;;;;47.93;30.20;;;;;;;;;;743793;188;920340;-65
2021/10/10 12:21:12;;;;;;;45.00;28.27;;;;;;;;;;765516;181;920845;-64
2021/10/10 12:23:40;;;;;;;54.60;31.20;;;;;;;;;;766809;181;919716;-66
2021/10/10 12:26:04;;;;;;;49.47;30.17;;;;;;;;;;763797;180;918624;-65
2021/10/10 12:28:30;;;;;;;51.93;31.50;;;;;;;;;;766424;180;917933;-65
2021/10/10 12:30:56;;;;;;;53.30;30.10;;;;;;;;;;763266;182;1124669;-66
2021/10/10 12:33:24;;;;;;;47.93;30.60;;;;;;;;;;747022;186;918543;-66
2021/10/10 12:35:51;;;;;;;56.70;29.77;;;;;;;;;;740444;190;919220;-66
2021/10/10 12:38:17;;;;;;;49.77;31.20;;;;;;;;;;761456;182;919563;-67
2021/10/10 12:40:43;;;;;;;52.65;30.08;;;;;;;;;;762749;181;918422;-65
2021/10/10 12:43:08;;;;;;;48.07;31.67;;;;;;;;;;768211;182;920270;-66
2021/10/10 12:45:35;;;;;;;51.73;28.70;;;;;;;;;;748584;186;932250;-66
2021/10/10 12:48:03;;;;;;;47.73;28.83;;;;;;;;;;766110;181;918781;-66
2021/10/10 12:50:29;;;;;;;50.30;28.87;;;;;;;;;;764247;182;919345;-65
2021/10/10 12:52:55;;;;;;;52.58;28.95;;;;;;;;;;767662;180;918923;-66
2021/10/10 12:55:21;;;;;;;51.47;33.07;;;;;;;;;;761816;182;919147;-65
2021/10/10 12:57:49;;;;;;;71.87;44.53;;;;;;;;;;762744;180;919120;-66
2021/10/10 13:00:16;;;;;;;56.70;30.30;;;;;;;;;;768225;182;919191;-65
2021/10/10 13:02:42;;;;;;;54.83;31.80;;;;;;;;;;766429;182;919476;-66
2021/10/10 13:05:08;;;;;;;65.83;39.33;;;;;;;;;;766082;182;919450;-66
2021/10/10 13:07:33;;;;;;;54.77;32.23;;;;;;;;;;765137;182;917232;-65
2021/10/10 13:09:59;;;;;;;48.10;28.70;;;;;;;;;;773559;182;918538;-69
2021/10/10 13:12:25;;;;;;;52.60;29.93;;;;;;;;;;749495;184;920265;-65
2021/10/10 13:14:51;;;;;;;51.80;31.23;;;;;;;;;;762622;181;918442;-65
2021/10/10 13:17:17;;;;;;;54.37;29.83;;;;;;;;;;758874;182;919994;-66
2021/10/10 13:19:43;;;;;;;48.93;30.03;;;;;;;;;;766846;181;919524;-65
2021/10/10 13:22:10;;;;;;;51.20;29.57;;;;;;;;;;764653;182;917887;-66
2021/10/10 13:24:34;;;;;;;51.80;32.30;;;;;;;;;;772463;179;917514;-66
2021/10/10 13:27:00;;;;;;;58.67;34.03;;;;;;;;;;763406;181;918899;-66
2021/10/10 13:29:26;;;;;;;50.63;31.17;;;;;;;;;;763604;181;930388;-66
2021/10/10 13:31:52;;;;;;;55.87;33.60;;;;;;;;;;765728;180;915726;-66
2021/10/10 13:34:19;;;;;;;56.47;36.30;;;;;;;;;;766482;182;915535;-66
2021/10/10 13:36:46;;;;;;;68.40;36.03;;;;;;;;;;760985;181;920021;-65
2021/10/10 13:39:12;;;;;;;67.87;41.23;;;;;;;;;;760405;181;918448;-66
2021/10/10 13:41:38;;;;;;;60.43;33.87;;;;;;;;;;769644;181;914742;-66
2021/10/10 13:44:04;;;;;;;58.73;32.10;;;;;;;;;;761542;182;920804;-66
2021/10/10 13:46:30;;;;;;;54.00;33.73;;;;;;;;;;765226;180;918398;-66
2021/10/10 13:48:55;;;;;;;51.03;31.23;;;;;;;;;;773140;182;918237;-65
2021/10/10 13:51:21;;;;;;;47.70;31.60;;;;;;;;;;761395;183;630671;-66
2021/10/10 13:53:47;;;;;;;68.07;34.20;;;;;;;;;;764760;182;920828;-66
2021/10/10 13:56:13;;;;;;;65.43;35.33;;;;;;;;;;731233;188;919000;-67
2021/10/10 13:58:39;;;;;;;60.27;36.67;;;;;;;;;;756937;183;1018666;-66
2021/10/10 14:01:05;;;;;;;65.07;33.90;;;;;;;;;;768187;180;915800;-66